createdAt,value
2017-10-15T00:00:52.300Z,87.00
2017-10-15T00:03:22.068Z,88.40
2017-10-15T00:05:54.491Z,85.40
2017-10-15T00:08:23.530Z,87.10
2017-10-15T00:10:58.689Z,85.30
2017-10-15T00:13:34.436Z,87.00
2017-10-15T00:16:10.042Z,87.00
2017-10-15T00:18:40.995Z,86.70
2017-10-15T00:21:14.841Z,88.40
2017-10-15T00:23:47.594Z,88.20
2017-10-15T00:26:22.183Z,85.40
2017-10-15T00:28:51.401Z,89.00
2017-10-15T00:31:24.426Z,88.90
2017-10-15T00:33:59.476Z,86.30
2017-10-15T00:36:30.410Z,85.00
2017-10-15T00:39:04.000Z,86.10
2017-10-15T00:41:32.177Z,86.10
2017-10-15T00:44:00.161Z,86.60
2017-10-15T00:46:28.175Z,86.80
2017-10-15T00:48:56.107Z,88.80
2017-10-15T00:51:24.092Z,87.70
2017-10-15T00:53:52.790Z,88.60
2017-10-15T00:56:20.828Z,88.60
2017-10-15T00:58:48.804Z,87.70
2017-10-15T01:01:16.796Z,87.10
2017-10-15T01:03:51.399Z,88.70
2017-10-15T01:06:19.368Z,86.10
2017-10-15T01:08:47.310Z,88.00
2017-10-15T01:11:15.316Z,89.20
2017-10-15T01:13:43.261Z,90.00
2017-10-15T01:16:11.232Z,90.40
2017-10-15T01:18:39.168Z,89.40
2017-10-15T01:21:07.205Z,90.00
2017-10-15T01:23:35.184Z,89.10
2017-10-15T01:26:03.224Z,89.70
2017-10-15T01:28:31.220Z,89.50
2017-10-15T01:30:59.250Z,88.90
2017-10-15T01:33:27.444Z,89.80
2017-10-15T01:35:55.467Z,87.40
2017-10-15T01:38:23.520Z,85.40
2017-10-15T01:40:51.527Z,89.90
2017-10-15T01:43:19.505Z,89.80
2017-10-15T01:45:47.523Z,89.20
2017-10-15T01:48:15.482Z,84.70
2017-10-15T01:50:43.466Z,87.40
2017-10-15T01:53:11.487Z,88.60
2017-10-15T01:55:39.517Z,88.20
2017-10-15T01:58:07.537Z,90.80
2017-10-15T02:00:35.490Z,90.50
2017-10-15T02:03:04.621Z,89.90
2017-10-15T02:05:32.571Z,90.10
2017-10-15T02:08:00.537Z,89.20
2017-10-15T02:10:28.509Z,87.40
2017-10-15T02:12:56.478Z,89.10
2017-10-15T02:15:24.478Z,90.00
2017-10-15T02:17:52.468Z,89.60
2017-10-15T02:20:20.389Z,86.30
2017-10-15T02:22:48.356Z,88.70
2017-10-15T02:25:16.250Z,90.10
2017-10-15T02:27:44.872Z,89.20
2017-10-15T02:30:12.780Z,90.20
2017-10-15T02:32:40.731Z,89.70
2017-10-15T02:35:08.625Z,86.10
2017-10-15T02:37:36.648Z,87.60
2017-10-15T02:40:04.656Z,90.00
2017-10-15T02:42:32.633Z,87.10
2017-10-15T02:45:00.637Z,85.90
2017-10-15T02:47:28.589Z,87.40
2017-10-15T02:49:56.502Z,89.00
2017-10-15T02:52:24.433Z,88.40
2017-10-15T02:55:00.818Z,88.60
2017-10-15T02:57:28.721Z,89.80
2017-10-15T02:59:56.666Z,90.30
2017-10-15T03:02:25.382Z,86.40
2017-10-15T03:04:53.334Z,86.50
2017-10-15T03:07:22.000Z,85.60
2017-10-15T03:09:49.958Z,85.60
2017-10-15T03:12:17.852Z,86.50
2017-10-15T03:14:52.176Z,90.10
2017-10-15T03:17:20.858Z,89.50
2017-10-15T03:19:49.648Z,86.10
2017-10-15T03:22:17.595Z,86.00
2017-10-15T03:24:45.549Z,89.10
2017-10-15T03:27:13.444Z,89.20
2017-10-15T03:29:41.410Z,86.30
2017-10-15T03:32:09.348Z,89.30
2017-10-15T03:34:37.290Z,88.10
2017-10-15T03:37:05.214Z,88.10
2017-10-15T03:39:33.240Z,89.30
2017-10-15T03:42:01.200Z,88.10
2017-10-15T03:44:30.335Z,84.90
2017-10-15T03:46:58.256Z,86.70
2017-10-15T03:49:26.213Z,86.90
2017-10-15T03:51:54.101Z,90.30
2017-10-15T03:54:22.061Z,86.30
2017-10-15T03:56:50.727Z,89.50
2017-10-15T03:59:18.685Z,89.40
2017-10-15T04:01:46.582Z,88.70
2017-10-15T04:04:14.538Z,86.70
2017-10-15T04:06:42.513Z,86.30
2017-10-15T04:09:10.458Z,88.40
2017-10-15T04:11:38.425Z,89.10
2017-10-15T04:14:08.434Z,87.00
2017-10-15T04:16:36.421Z,87.60
2017-10-15T04:19:04.439Z,85.50
2017-10-15T04:21:32.387Z,88.60
2017-10-15T04:24:01.070Z,89.60
2017-10-15T04:26:29.063Z,89.50
2017-10-15T04:28:57.724Z,86.90
2017-10-15T04:31:25.687Z,87.00
2017-10-15T04:33:53.607Z,89.30
2017-10-15T04:36:21.561Z,88.60
2017-10-15T04:38:49.479Z,85.70
2017-10-15T04:41:17.484Z,89.80
2017-10-15T04:43:49.845Z,89.60
2017-10-15T04:46:17.809Z,89.50
2017-10-15T04:48:45.722Z,90.20
2017-10-15T04:51:13.692Z,85.70
2017-10-15T04:53:41.620Z,86.10
2017-10-15T04:56:09.573Z,87.40
2017-10-15T04:58:37.487Z,88.80
2017-10-15T05:01:05.449Z,87.70
2017-10-15T05:03:33.384Z,88.50
2017-10-15T05:06:01.391Z,86.20
2017-10-15T05:08:30.066Z,88.60
2017-10-15T05:10:58.038Z,88.60
2017-10-15T05:13:39.474Z,86.70
2017-10-15T05:16:07.442Z,86.80
2017-10-15T05:18:35.406Z,86.90
2017-10-15T05:21:03.360Z,89.70
2017-10-15T05:23:31.319Z,89.30
2017-10-15T05:25:59.207Z,86.50
2017-10-15T05:28:27.166Z,87.10
2017-10-15T05:30:55.096Z,87.70
2017-10-15T05:33:23.051Z,87.90
2017-10-15T05:35:50.981Z,87.40
2017-10-15T05:38:18.931Z,90.20
2017-10-15T05:40:46.876Z,89.70
2017-10-15T05:43:15.057Z,86.80
2017-10-15T05:45:42.951Z,88.60
2017-10-15T05:48:10.971Z,89.70
2017-10-15T05:50:38.915Z,89.80
2017-10-15T05:53:06.921Z,88.10
2017-10-15T05:55:34.871Z,87.90
2017-10-15T05:58:02.871Z,87.50
2017-10-15T06:00:30.793Z,89.50
2017-10-15T06:02:58.734Z,88.60
2017-10-15T06:05:26.694Z,90.10
2017-10-15T06:07:54.657Z,88.30
2017-10-15T06:10:22.605Z,86.40
2017-10-15T06:12:50.587Z,86.80
2017-10-15T06:15:18.530Z,89.60
2017-10-15T06:17:46.510Z,88.90
2017-10-15T06:20:14.431Z,87.80
2017-10-15T06:22:42.344Z,88.30
2017-10-15T06:25:10.302Z,90.00
2017-10-15T06:27:38.967Z,88.10
2017-10-15T06:30:06.931Z,87.90
2017-10-15T06:32:34.863Z,87.80
2017-10-15T06:35:03.031Z,87.70
2017-10-15T06:37:30.938Z,90.10
2017-10-15T06:39:58.898Z,88.50
2017-10-15T06:42:26.804Z,89.20
2017-10-15T06:44:54.765Z,87.90
2017-10-15T06:47:22.656Z,88.80
2017-10-15T06:49:50.599Z,86.60
2017-10-15T06:52:18.593Z,87.50
2017-10-15T06:54:47.906Z,85.90
2017-10-15T06:57:15.815Z,85.20
2017-10-15T06:59:44.593Z,81.90
2017-10-15T07:02:13.263Z,81.60
2017-10-15T07:04:43.257Z,81.40
2017-10-15T07:07:11.178Z,79.50
2017-10-15T07:09:39.196Z,75.90
2017-10-15T07:12:07.112Z,72.60
2017-10-15T07:14:35.177Z,67.50
2017-10-15T07:17:03.085Z,62.40
2017-10-15T07:19:31.046Z,58.40
2017-10-15T07:21:58.974Z,58.40
2017-10-15T07:24:26.955Z,55.10
2017-10-15T07:26:54.874Z,53.60
2017-10-15T07:29:22.861Z,53.40
2017-10-15T07:31:50.757Z,53.20
2017-10-15T07:34:18.852Z,50.20
2017-10-15T07:36:47.582Z,47.80
2017-10-15T07:39:15.507Z,47.80
2017-10-15T07:41:43.470Z,48.00
2017-10-15T07:44:11.400Z,48.30
2017-10-15T07:46:39.358Z,49.30
2017-10-15T07:49:07.351Z,48.60
2017-10-15T07:51:35.304Z,46.80
2017-10-15T07:54:03.207Z,46.70
2017-10-15T07:56:31.170Z,47.60
2017-10-15T07:58:59.876Z,47.50
2017-10-15T08:01:27.832Z,45.30
2017-10-15T08:03:59.390Z,44.10
2017-10-15T08:06:27.328Z,43.00
2017-10-15T08:08:55.227Z,42.10
2017-10-15T08:11:23.173Z,41.20
2017-10-15T08:13:51.090Z,40.50
2017-10-15T08:16:19.110Z,40.40
2017-10-15T08:18:47.126Z,40.20
2017-10-15T08:21:15.185Z,41.20
2017-10-15T08:23:43.097Z,41.10
2017-10-15T08:26:11.037Z,40.10
2017-10-15T08:28:39.702Z,38.50
2017-10-15T08:31:07.657Z,38.40
2017-10-15T08:33:35.654Z,38.50
2017-10-15T08:36:03.603Z,38.50
2017-10-15T08:38:31.491Z,39.40
2017-10-15T08:40:59.386Z,38.80
2017-10-15T08:43:27.378Z,38.80
2017-10-15T08:45:55.302Z,38.70
2017-10-15T08:48:23.237Z,38.60
2017-10-15T08:50:51.147Z,39.20
2017-10-15T08:53:22.375Z,39.70
2017-10-15T08:55:50.265Z,39.70
2017-10-15T08:58:20.881Z,39.40
2017-10-15T09:00:48.793Z,39.40
2017-10-15T09:03:16.741Z,39.20
2017-10-15T09:05:44.641Z,40.00
2017-10-15T09:08:12.611Z,41.60
2017-10-15T09:10:40.505Z,40.70
2017-10-15T09:13:08.445Z,41.30
2017-10-15T09:15:36.351Z,41.50
2017-10-15T09:18:04.294Z,41.00
2017-10-15T09:20:32.205Z,40.90
2017-10-15T09:23:00.246Z,40.30
2017-10-15T09:25:28.155Z,40.50
2017-10-15T09:27:56.111Z,40.50
2017-10-15T09:30:24.078Z,41.30
2017-10-15T09:32:52.078Z,43.60
2017-10-15T09:35:20.038Z,41.50
2017-10-15T09:37:47.994Z,42.50
2017-10-15T09:40:15.906Z,43.30
2017-10-15T09:42:44.649Z,43.10
2017-10-15T09:45:12.612Z,43.10
2017-10-15T09:47:40.518Z,43.20
2017-10-15T09:50:08.481Z,43.20
2017-10-15T09:52:36.381Z,43.30
2017-10-15T09:55:04.594Z,43.40
2017-10-15T09:57:32.493Z,42.70
2017-10-15T10:00:01.218Z,42.30
2017-10-15T10:02:29.111Z,42.30
2017-10-15T10:04:57.037Z,43.30
2017-10-15T10:07:24.934Z,42.50
2017-10-15T10:09:52.886Z,40.40
2017-10-15T10:12:20.798Z,41.10
2017-10-15T10:14:49.764Z,40.20
2017-10-15T10:17:17.687Z,38.70
2017-10-15T10:19:45.666Z,39.20
2017-10-15T10:22:13.614Z,39.40
2017-10-15T10:24:42.346Z,38.30
2017-10-15T10:27:10.273Z,38.30
2017-10-15T10:29:38.218Z,37.40
2017-10-15T10:32:06.101Z,38.70
2017-10-15T10:34:34.061Z,37.80
2017-10-15T10:37:01.962Z,38.80
2017-10-15T10:39:29.973Z,39.30
2017-10-15T10:41:57.929Z,40.10
2017-10-15T10:44:29.413Z,40.90
2017-10-15T10:46:57.305Z,39.20
2017-10-15T10:49:25.192Z,39.20
2017-10-15T10:51:53.976Z,41.20
2017-10-15T10:54:21.902Z,41.10
2017-10-15T10:56:49.897Z,40.20
2017-10-15T10:59:17.793Z,41.30
2017-10-15T11:01:46.526Z,40.80
2017-10-15T11:04:14.397Z,40.80
2017-10-15T11:06:42.330Z,40.50
2017-10-15T11:09:10.216Z,41.30
2017-10-15T11:11:38.154Z,39.90
2017-10-15T11:14:15.355Z,40.00
2017-10-15T11:16:43.285Z,39.90
2017-10-15T11:19:11.155Z,40.30
2017-10-15T11:21:39.068Z,41.00
2017-10-15T11:24:06.947Z,40.30
2017-10-15T11:26:34.865Z,38.40
2017-10-15T11:29:02.756Z,37.20
2017-10-15T11:31:31.455Z,38.20
2017-10-15T11:33:59.347Z,38.10
2017-10-15T11:36:27.280Z,37.80
2017-10-15T11:38:55.170Z,37.50
2017-10-15T11:41:23.169Z,38.30
2017-10-15T11:43:52.287Z,39.60
2017-10-15T11:46:20.231Z,39.40
2017-10-15T11:48:48.107Z,40.70
2017-10-15T11:51:16.052Z,39.90
2017-10-15T11:53:43.927Z,38.40
2017-10-15T11:56:11.854Z,39.00
2017-10-15T11:58:40.501Z,38.00
2017-10-15T12:01:08.433Z,38.00
2017-10-15T12:03:36.309Z,38.60
2017-10-15T12:06:04.235Z,38.80
2017-10-15T12:08:32.117Z,39.10
2017-10-15T12:11:00.813Z,38.80
2017-10-15T12:13:28.896Z,38.80
2017-10-15T12:15:56.829Z,40.20
2017-10-15T12:18:24.759Z,39.90
2017-10-15T12:20:52.679Z,39.10
2017-10-15T12:23:21.400Z,39.00
2017-10-15T12:25:49.285Z,39.00
2017-10-15T12:28:17.397Z,39.00
2017-10-15T12:30:45.310Z,38.80
2017-10-15T12:33:13.251Z,37.60
2017-10-15T12:35:41.141Z,38.70
2017-10-15T12:38:09.088Z,39.40
2017-10-15T12:40:37.026Z,36.50
2017-10-15T12:43:05.983Z,37.90
2017-10-15T12:45:33.995Z,38.60
2017-10-15T12:48:02.778Z,38.30
2017-10-15T12:50:30.727Z,38.30
2017-10-15T12:52:58.677Z,38.00
2017-10-15T12:55:26.612Z,38.20
2017-10-15T12:57:54.642Z,37.90
2017-10-15T13:00:22.554Z,38.10
2017-10-15T13:02:51.297Z,39.20
2017-10-15T13:05:19.319Z,39.20
2017-10-15T13:07:49.397Z,39.10
2017-10-15T13:10:17.377Z,39.10
2017-10-15T13:12:45.359Z,39.40
2017-10-15T13:15:13.399Z,39.40
2017-10-15T13:17:41.421Z,40.40
2017-10-15T13:20:12.031Z,40.90
2017-10-15T13:22:40.051Z,42.20
2017-10-15T13:25:08.146Z,42.40
2017-10-15T13:27:36.123Z,42.90
2017-10-15T13:30:04.128Z,44.00
2017-10-15T13:32:32.046Z,42.10
2017-10-15T13:35:03.288Z,42.90
2017-10-15T13:37:31.290Z,42.70
2017-10-15T13:39:59.329Z,43.40
2017-10-15T13:42:27.262Z,43.00
2017-10-15T13:44:55.213Z,43.90
2017-10-15T13:47:23.128Z,44.60
2017-10-15T13:49:51.106Z,45.10
2017-10-15T13:52:19.037Z,46.10
2017-10-15T13:54:47.026Z,46.60
2017-10-15T13:57:14.936Z,47.30
2017-10-15T13:59:46.741Z,47.90
2017-10-15T14:02:14.756Z,48.80
2017-10-15T14:04:42.816Z,48.80
2017-10-15T14:07:10.730Z,49.00
2017-10-15T14:09:38.658Z,49.70
2017-10-15T14:12:06.565Z,49.50
2017-10-15T14:14:34.466Z,51.00
2017-10-15T14:17:02.392Z,52.10
2017-10-15T14:19:30.261Z,51.60
2017-10-15T14:22:00.029Z,52.30
2017-10-15T14:24:28.078Z,52.70
2017-10-15T14:26:59.833Z,53.50
2017-10-15T14:29:27.860Z,53.90
2017-10-15T14:31:55.913Z,54.00
2017-10-15T14:34:23.816Z,53.40
2017-10-15T14:36:51.801Z,53.60
2017-10-15T14:39:19.711Z,53.90
2017-10-15T14:41:47.713Z,54.80
2017-10-15T14:44:15.719Z,54.40
2017-10-15T14:46:43.655Z,54.70
2017-10-15T14:49:11.516Z,55.00
2017-10-15T14:51:39.449Z,56.00
2017-10-15T14:54:07.334Z,55.20
2017-10-15T14:56:35.273Z,56.00
2017-10-15T14:59:03.170Z,56.10
2017-10-15T15:01:31.098Z,57.00
2017-10-15T15:03:58.988Z,57.00
2017-10-15T15:06:26.969Z,57.60
2017-10-15T15:08:54.917Z,58.60
2017-10-15T15:11:22.918Z,58.20
2017-10-15T15:13:52.890Z,58.10
2017-10-15T15:16:20.817Z,58.10
2017-10-15T15:18:48.709Z,58.10
2017-10-15T15:21:16.654Z,58.40
2017-10-15T15:23:44.566Z,59.20
2017-10-15T15:26:12.457Z,59.70
2017-10-15T15:28:41.163Z,59.00
2017-10-15T15:31:09.062Z,58.90
2017-10-15T15:33:37.002Z,59.60
2017-10-15T15:36:04.894Z,59.70
2017-10-15T15:38:33.835Z,59.50
2017-10-15T15:41:01.717Z,59.00
2017-10-15T15:43:31.669Z,59.80
2017-10-15T15:45:59.552Z,59.70
2017-10-15T15:48:27.493Z,60.40
2017-10-15T15:50:55.374Z,61.20
2017-10-15T15:53:23.289Z,63.20
2017-10-15T15:55:51.169Z,63.40
2017-10-15T15:58:19.099Z,64.60
2017-10-15T16:00:46.986Z,66.00
2017-10-15T16:03:14.941Z,65.90
2017-10-15T16:05:42.889Z,64.30
2017-10-15T16:08:10.820Z,65.00
2017-10-15T16:10:39.474Z,66.80
2017-10-15T16:13:08.521Z,66.80
2017-10-15T16:15:37.692Z,69.00
2017-10-15T16:18:05.849Z,68.40
2017-10-15T16:20:33.752Z,70.60
2017-10-15T16:23:01.713Z,72.40
2017-10-15T16:25:30.412Z,74.90
2017-10-15T16:27:58.468Z,74.70
2017-10-15T16:30:27.150Z,74.70
2017-10-15T16:32:55.048Z,74.70
2017-10-15T16:35:23.054Z,76.40
2017-10-15T16:37:51.023Z,78.40
2017-10-15T16:40:18.964Z,79.00
2017-10-15T16:42:46.865Z,80.90
2017-10-15T16:45:14.869Z,80.80
2017-10-15T16:47:43.536Z,80.70
2017-10-15T16:50:11.550Z,80.60
2017-10-15T16:52:40.064Z,82.00
2017-10-15T16:55:08.031Z,81.40
2017-10-15T16:57:35.977Z,83.10
2017-10-15T17:00:04.004Z,82.40
2017-10-15T17:02:31.941Z,84.00
2017-10-15T17:05:03.019Z,83.70
2017-10-15T17:07:30.976Z,84.00
2017-10-15T17:09:58.967Z,83.30
2017-10-15T17:12:27.760Z,83.80
2017-10-15T17:14:55.759Z,83.80
2017-10-15T17:17:23.717Z,84.60
2017-10-15T17:19:51.726Z,85.70
2017-10-15T17:22:19.682Z,84.70
2017-10-15T17:24:47.700Z,83.00
2017-10-15T17:27:16.191Z,81.30
2017-10-15T17:29:45.555Z,83.30
2017-10-15T17:32:13.452Z,85.00
2017-10-15T17:34:42.690Z,83.40
2017-10-15T17:37:10.644Z,84.10
2017-10-15T17:39:39.354Z,83.60
2017-10-15T17:42:07.270Z,83.60
2017-10-15T17:44:35.237Z,84.60
2017-10-15T17:47:03.134Z,83.40
2017-10-15T17:49:31.122Z,84.30
2017-10-15T17:51:59.073Z,85.70
2017-10-15T17:54:27.001Z,83.20
2017-10-15T17:56:55.000Z,85.10
2017-10-15T17:59:22.954Z,84.40
2017-10-15T18:01:51.011Z,83.30
2017-10-15T18:04:18.904Z,83.90
2017-10-15T18:06:46.881Z,84.80
2017-10-15T18:09:14.819Z,84.10
2017-10-15T18:11:42.782Z,83.20
2017-10-15T18:14:10.682Z,85.00
2017-10-15T18:16:38.645Z,84.20
2017-10-15T18:19:12.041Z,84.10
2017-10-15T18:21:41.680Z,82.80
2017-10-15T18:24:13.878Z,85.00
2017-10-15T18:26:41.872Z,84.90
2017-10-15T18:29:09.804Z,86.20
2017-10-15T18:31:37.781Z,85.30
2017-10-15T18:34:05.700Z,86.80
2017-10-15T18:36:33.699Z,85.50
2017-10-15T18:39:01.633Z,83.60
2017-10-15T18:41:29.596Z,85.50
2017-10-15T18:43:57.523Z,85.50
2017-10-15T18:46:25.544Z,85.70
2017-10-15T18:48:53.464Z,87.90
2017-10-15T18:51:21.407Z,85.60
2017-10-15T18:53:49.620Z,85.20
2017-10-15T18:56:17.544Z,84.30
2017-10-15T18:58:45.523Z,86.30
2017-10-15T19:01:13.444Z,85.10
2017-10-15T19:03:44.922Z,86.90
2017-10-15T19:06:12.857Z,85.40
2017-10-15T19:08:40.822Z,86.70
2017-10-15T19:11:08.781Z,84.30
2017-10-15T19:13:36.897Z,86.60
2017-10-15T19:16:04.880Z,85.70
2017-10-15T19:18:32.844Z,87.20
2017-10-15T19:21:00.826Z,85.40
2017-10-15T19:23:28.780Z,85.20
2017-10-15T19:25:56.681Z,85.70
2017-10-15T19:28:25.714Z,87.20
2017-10-15T19:30:54.068Z,86.20
2017-10-15T19:33:22.094Z,88.30
2017-10-15T19:35:52.614Z,86.20
2017-10-15T19:38:20.580Z,85.30
2017-10-15T19:40:48.574Z,87.30
2017-10-15T19:43:23.295Z,87.50
2017-10-15T19:45:53.713Z,87.80
2017-10-15T19:48:24.742Z,88.20
2017-10-15T19:50:55.657Z,88.50
2017-10-15T19:53:26.189Z,88.60
2017-10-15T19:55:54.094Z,87.40
2017-10-15T19:58:22.056Z,87.80
2017-10-15T20:00:50.002Z,87.00
2017-10-15T20:03:18.018Z,86.30
2017-10-15T20:05:45.975Z,85.30
2017-10-15T20:08:13.947Z,87.20
2017-10-15T20:10:41.856Z,86.20
2017-10-15T20:13:10.559Z,88.60
2017-10-15T20:15:38.530Z,88.60
2017-10-15T20:18:06.482Z,87.20
2017-10-15T20:20:35.224Z,86.70
2017-10-15T20:23:07.214Z,86.70
2017-10-15T20:25:35.220Z,87.10
2017-10-15T20:28:04.125Z,87.40
2017-10-15T20:30:33.002Z,87.30
2017-10-15T20:33:00.942Z,85.60
2017-10-15T20:35:28.985Z,87.30
2017-10-15T20:37:56.932Z,87.60
2017-10-15T20:40:24.924Z,85.50
2017-10-15T20:42:52.839Z,89.10
2017-10-15T20:45:20.837Z,89.40
2017-10-15T20:47:48.775Z,86.90
2017-10-15T20:50:19.147Z,89.50
2017-10-15T20:52:47.063Z,88.90
2017-10-15T20:55:15.036Z,88.10
2017-10-15T20:57:42.964Z,85.90
2017-10-15T21:00:10.973Z,86.40
2017-10-15T21:02:38.957Z,85.30
2017-10-15T21:05:06.917Z,88.20
2017-10-15T21:07:34.815Z,86.70
2017-10-15T21:10:02.793Z,85.20
2017-10-15T21:12:30.738Z,86.10
2017-10-15T21:15:03.205Z,85.50
2017-10-15T21:17:31.125Z,85.00
2017-10-15T21:19:59.073Z,86.60
2017-10-15T21:22:27.021Z,85.50
2017-10-15T21:24:54.954Z,88.70
2017-10-15T21:27:22.928Z,87.70
2017-10-15T21:29:50.845Z,86.40
2017-10-15T21:32:19.620Z,84.90
2017-10-15T21:34:48.328Z,88.30
2017-10-15T21:37:16.289Z,88.20
2017-10-15T21:39:44.982Z,85.80
2017-10-15T21:42:13.697Z,86.50
2017-10-15T21:44:43.693Z,86.40
2017-10-15T21:47:11.660Z,85.30
2017-10-15T21:49:39.570Z,87.90
2017-10-15T21:52:07.518Z,88.00
2017-10-15T21:54:41.609Z,85.60
2017-10-15T21:57:22.355Z,86.70
2017-10-15T21:59:57.484Z,86.80
2017-10-15T22:02:25.797Z,86.30
2017-10-15T22:04:53.806Z,87.20
2017-10-15T22:07:21.770Z,86.70
2017-10-15T22:09:49.698Z,85.20
2017-10-15T22:12:21.845Z,87.40
2017-10-15T22:14:49.774Z,84.30
2017-10-15T22:17:17.744Z,86.10
2017-10-15T22:19:45.676Z,88.60
2017-10-15T22:22:19.113Z,86.20
2017-10-15T22:24:47.036Z,87.00
2017-10-15T22:27:15.005Z,87.40
2017-10-15T22:29:42.892Z,85.70
2017-10-15T22:32:10.843Z,88.50
2017-10-15T22:34:39.562Z,87.80
2017-10-15T22:37:07.514Z,87.80
2017-10-15T22:39:35.443Z,84.60
2017-10-15T22:42:03.427Z,84.60
2017-10-15T22:44:31.336Z,86.40
2017-10-15T22:46:59.242Z,87.10
2017-10-15T22:49:27.196Z,87.60
2017-10-15T22:51:55.121Z,86.10
2017-10-15T22:54:27.556Z,90.00
2017-10-15T22:56:55.450Z,90.00
2017-10-15T22:59:23.410Z,87.10
2017-10-15T23:01:51.324Z,88.40
2017-10-15T23:04:19.289Z,89.10
2017-10-15T23:06:47.202Z,88.70
2017-10-15T23:09:15.168Z,85.10
2017-10-15T23:11:43.081Z,85.30
2017-10-15T23:14:11.823Z,86.20
2017-10-15T23:16:39.728Z,86.10
2017-10-15T23:19:07.679Z,90.10
2017-10-15T23:21:35.625Z,88.10
2017-10-15T23:24:05.665Z,88.30
2017-10-15T23:26:33.593Z,87.70
2017-10-15T23:29:01.565Z,89.60
2017-10-15T23:31:29.489Z,87.40
2017-10-15T23:33:57.465Z,86.90
2017-10-15T23:36:25.427Z,87.60
2017-10-15T23:38:53.426Z,89.90
2017-10-15T23:41:22.092Z,85.10
2017-10-15T23:43:50.045Z,85.00
2017-10-15T23:46:17.944Z,90.00
2017-10-15T23:48:46.688Z,88.40
2017-10-15T23:51:14.643Z,88.40
2017-10-15T23:53:43.681Z,88.90
2017-10-15T23:56:11.653Z,90.10
2017-10-15T23:58:39.557Z,87.50
